Time;durP1;ratioP1;P1;durP2;ratioP2;P2;SDS_P1;SDS_P2;PMS_P1;PMS_P2;Temp;Humidity;BMP_temperature;BMP_pressure;BME280_temperature;BME280_humidity;BME280_pressure;Samples;Min_cycle;Max_cycle;Signal;HPM_P1;HPM_P2
2022/09/10 00:00:35;;;;;;;1.88;1.10;;;;;;;;;;5057885;28;20024;-83
2022/09/10 00:03:01;;;;;;;2.58;1.27;;;;;;;;;;5041054;28;20381;-82
2022/09/10 00:05:27;;;;;;;1.83;1.15;;;;;;;;;;5057602;28;20043;-82
2022/09/10 00:07:52;;;;;;;1.08;0.93;;;;;;;;;;5057713;28;20149;-83
2022/09/10 00:10:18;;;;;;;1.67;1.00;;;;;;;;;;5075517;28;20037;-82
2022/09/10 00:12:47;;;;;;;2.65;1.27;;;;;;;;;;5075499;28;20431;-82
2022/09/10 00:15:13;;;;;;;2.90;1.30;;;;;;;;;;5058212;28;20024;-82
2022/09/10 00:17:38;;;;;;;1.42;0.95;;;;;;;;;;5075525;28;20082;-82
2022/09/10 00:20:05;;;;;;;1.48;1.08;;;;;;;;;;5057618;28;20059;-82
2022/09/10 00:22:32;;;;;;;2.08;1.20;;;;;;;;;;5057103;28;20527;-82
2022/09/10 00:24:57;;;;;;;2.15;0.98;;;;;;;;;;5074404;28;20036;-83
2022/09/10 00:27:23;;;;;;;3.13;1.23;;;;;;;;;;5057258;28;20024;-82
2022/09/10 00:29:53;;;;;;;1.00;0.90;;;;;;;;;;5075781;28;20024;-83
2022/09/10 00:32:20;;;;;;;1.63;0.82;;;;;;;;;;5057592;28;20032;-82
2022/09/10 00:34:48;;;;;;;1.85;1.23;;;;;;;;;;5041000;28;20024;-82
2022/09/10 00:37:15;;;;;;;1.58;0.90;;;;;;;;;;5057220;28;20032;-83
2022/09/10 00:39:40;;;;;;;1.13;1.02;;;;;;;;;;5057201;28;20035;-82
2022/09/10 00:42:10;;;;;;;1.23;0.93;;;;;;;;;;5040369;28;20021;-83
2022/09/10 00:44:38;;;;;;;1.90;1.00;;;;;;;;;;5056975;28;20050;-82
2022/09/10 00:47:09;;;;;;;2.97;1.20;;;;;;;;;;5074745;28;20072;-82
2022/09/10 00:49:38;;;;;;;2.38;1.10;;;;;;;;;;5056919;28;20119;-82
2022/09/10 00:52:04;;;;;;;2.53;1.20;;;;;;;;;;5040173;28;20490;-82
2022/09/10 00:54:30;;;;;;;2.92;0.90;;;;;;;;;;5057110;28;20060;-82
2022/09/10 00:56:59;;;;;;;4.45;1.35;;;;;;;;;;5056733;28;20075;-83
2022/09/10 00:59:25;;;;;;;3.22;1.10;;;;;;;;;;5056806;28;20133;-83
2022/09/10 01:01:51;;;;;;;1.80;0.98;;;;;;;;;;5056610;28;20483;-82
2022/09/10 01:04:16;;;;;;;2.30;1.48;;;;;;;;;;5056880;28;20041;-82
2022/09/10 01:06:44;;;;;;;2.92;0.98;;;;;;;;;;5056575;28;20025;-83
2022/09/10 01:09:10;;;;;;;2.17;1.10;;;;;;;;;;5056750;28;20032;-83
2022/09/10 01:12:04;;;;;;;2.00;1.30;;;;;;;;;;5056201;28;20064;-83
2022/09/10 01:14:53;;;;;;;1.40;1.00;;;;;;;;;;5074157;28;20530;-81
2022/09/10 01:17:25;;;;;;;1.90;1.23;;;;;;;;;;5039699;28;20119;-83
2022/09/10 01:20:32;;;;;;;1.95;1.05;;;;;;;;;;5056414;28;20020;-83
2022/09/10 01:23:41;;;;;;;3.83;1.40;;;;;;;;;;5007942;28;20050;-83
2022/09/10 01:26:39;;;;;;;2.50;1.08;;;;;;;;;;5074268;28;20107;-83
2022/09/10 01:29:19;;;;;;;2.10;1.02;;;;;;;;;;5056070;28;20039;-82
2022/09/10 01:32:14;;;;;;;3.33;1.42;;;;;;;;;;5039381;28;20024;-82
2022/09/10 01:35:02;;;;;;;3.53;1.23;;;;;;;;;;5073622;28;20026;-83
2022/09/10 01:37:29;;;;;;;2.13;1.00;;;;;;;;;;5060355;28;20036;-83
2022/09/10 01:39:55;;;;;;;2.70;1.20;;;;;;;;;;5056207;28;20075;-83
2022/09/10 01:42:25;;;;;;;2.47;1.40;;;;;;;;;;5056112;28;20465;-83
2022/09/10 01:44:52;;;;;;;1.73;1.10;;;;;;;;;;5055840;28;20032;-83
2022/09/10 01:47:32;;;;;;;3.90;1.38;;;;;;;;;;5055784;28;20040;-83
2022/09/10 01:50:23;;;;;;;2.53;1.20;;;;;;;;;;5073559;28;20524;-83
2022/09/10 01:52:57;;;;;;;2.72;1.10;;;;;;;;;;5055639;28;20020;-83
2022/09/10 01:56:02;;;;;;;2.80;1.60;;;;;;;;;;5073461;28;20028;-83
2022/09/10 01:58:42;;;;;;;3.53;1.65;;;;;;;;;;5039719;28;20042;-82
2022/09/10 02:01:22;;;;;;;1.98;1.15;;;;;;;;;;5055872;28;20024;-82
2022/09/10 02:03:51;;;;;;;2.53;1.13;;;;;;;;;;5055521;28;20021;-83
2022/09/10 02:06:19;;;;;;;2.60;1.20;;;;;;;;;;5055565;28;20074;-83
2022/09/10 02:08:47;;;;;;;1.83;1.27;;;;;;;;;;5055664;28;20025;-83
2022/09/10 02:11:13;;;;;;;3.10;1.40;;;;;;;;;;5072286;28;20146;-82
2022/09/10 02:13:41;;;;;;;3.00;1.33;;;;;;;;;;5073415;28;20047;-82
2022/09/10 02:16:09;;;;;;;1.63;1.30;;;;;;;;;;5055473;28;20028;-82
2022/09/10 02:18:37;;;;;;;2.13;1.40;;;;;;;;;;5055387;28;20056;-83
2022/09/10 02:21:02;;;;;;;2.63;1.52;;;;;;;;;;5038609;28;20139;-82
2022/09/10 02:23:38;;;;;;;1.75;1.35;;;;;;;;;;5055167;28;20080;-83
2022/09/10 02:26:04;;;;;;;2.75;1.50;;;;;;;;;;5038424;28;20106;-82
2022/09/10 02:28:29;;;;;;;5.30;1.60;;;;;;;;;;5055470;28;20468;-82
2022/09/10 02:30:55;;;;;;;7.28;1.45;;;;;;;;;;5073012;28;20032;-83
2022/09/10 02:33:20;;;;;;;3.00;1.40;;;;;;;;;;5054928;28;20036;-82
2022/09/10 02:35:47;;;;;;;2.40;1.50;;;;;;;;;;5055102;28;20071;-83
2022/09/10 02:38:12;;;;;;;4.43;2.10;;;;;;;;;;5055198;28;20027;-82
2022/09/10 02:40:38;;;;;;;2.92;1.35;;;;;;;;;;5072963;28;20120;-82
2022/09/10 02:43:03;;;;;;;3.70;1.55;;;;;;;;;;5055160;28;20028;-83
2022/09/10 02:45:29;;;;;;;2.70;1.60;;;;;;;;;;5055036;28;20465;-83
2022/09/10 02:47:54;;;;;;;2.25;1.70;;;;;;;;;;5054617;28;20480;-82
2022/09/10 02:50:20;;;;;;;11.98;1.38;;;;;;;;;;5038313;28;20078;-83
2022/09/10 02:52:45;;;;;;;1.42;1.33;;;;;;;;;;5038109;28;20028;-82
2022/09/10 02:55:11;;;;;;;2.80;1.80;;;;;;;;;;5073276;28;20052;-83
2022/09/10 02:57:38;;;;;;;1.60;1.25;;;;;;;;;;5038313;28;20067;-82
2022/09/10 03:00:05;;;;;;;2.97;1.42;;;;;;;;;;5072746;28;20452;-82
2022/09/10 03:02:31;;;;;;;1.33;1.23;;;;;;;;;;5038548;28;20499;-82
2022/09/10 03:04:56;;;;;;;3.28;1.63;;;;;;;;;;5071143;28;20021;-83
2022/09/10 03:07:21;;;;;;;3.85;1.55;;;;;;;;;;5072789;28;20041;-82
2022/09/10 03:09:47;;;;;;;6.85;1.58;;;;;;;;;;5055148;28;20055;-82
2022/09/10 03:12:14;;;;;;;2.45;1.60;;;;;;;;;;5054713;28;20071;-82
2022/09/10 03:14:40;;;;;;;2.95;1.63;;;;;;;;;;5054962;28;20534;-82
2022/09/10 03:17:05;;;;;;;2.40;1.52;;;;;;;;;;5054501;28;20115;-83
2022/09/10 03:19:31;;;;;;;2.58;1.52;;;;;;;;;;5054953;28;20021;-83
2022/09/10 03:21:56;;;;;;;3.25;1.70;;;;;;;;;;5072348;28;20036;-82
2022/09/10 03:24:21;;;;;;;3.38;1.60;;;;;;;;;;5054593;28;20110;-82
2022/09/10 03:26:47;;;;;;;2.33;1.40;;;;;;;;;;5072611;28;20103;-83
2022/09/10 03:29:14;;;;;;;2.42;2.00;;;;;;;;;;5054517;28;20041;-82
2022/09/10 03:31:39;;;;;;;2.30;1.75;;;;;;;;;;5072416;28;20035;-83
2022/09/10 03:34:05;;;;;;;2.33;1.65;;;;;;;;;;5054535;28;20020;-82
2022/09/10 03:36:30;;;;;;;3.63;1.88;;;;;;;;;;5072626;28;20391;-83
2022/09/10 03:38:57;;;;;;;1.77;1.48;;;;;;;;;;5072441;28;20029;-82
2022/09/10 03:41:23;;;;;;;2.40;1.52;;;;;;;;;;5037834;28;20392;-83
2022/09/10 03:43:48;;;;;;;2.28;1.40;;;;;;;;;;5072259;28;20025;-83
2022/09/10 03:46:14;;;;;;;2.20;1.65;;;;;;;;;;5072245;28;20032;-83
2022/09/10 03:48:42;;;;;;;1.83;1.70;;;;;;;;;;5054583;28;20116;-83
2022/09/10 03:51:09;;;;;;;2.53;1.70;;;;;;;;;;5054765;28;20028;-83
2022/09/10 03:53:35;;;;;;;2.58;1.70;;;;;;;;;;5037796;28;20121;-83
2022/09/10 03:56:00;;;;;;;2.53;1.80;;;;;;;;;;5072217;28;20106;-82
2022/09/10 03:58:27;;;;;;;3.50;2.50;;;;;;;;;;5072177;28;20052;-83
2022/09/10 04:00:52;;;;;;;3.00;1.70;;;;;;;;;;5056802;28;20024;-81
2022/09/10 04:03:19;;;;;;;2.58;1.75;;;;;;;;;;5041189;28;20258;-83
2022/09/10 04:05:44;;;;;;;1.85;1.48;;;;;;;;;;5057581;28;20032;-82
2022/09/10 04:08:11;;;;;;;2.25;1.70;;;;;;;;;;5057918;28;20036;-82
2022/09/10 04:10:37;;;;;;;1.50;1.40;;;;;;;;;;5057657;28;20468;-83
2022/09/10 04:13:03;;;;;;;3.25;2.17;;;;;;;;;;5057652;28;20033;-82
2022/09/10 04:15:28;;;;;;;2.78;1.92;;;;;;;;;;5057870;28;20079;-82
2022/09/10 04:17:53;;;;;;;2.45;1.80;;;;;;;;;;5075756;28;20029;-82
2022/09/10 04:20:20;;;;;;;2.35;1.65;;;;;;;;;;5058150;28;20487;-83
2022/09/10 04:22:46;;;;;;;2.17;1.73;;;;;;;;;;5040549;28;20041;-82
2022/09/10 04:25:12;;;;;;;4.28;1.60;;;;;;;;;;5075180;28;20040;-83
2022/09/10 04:27:38;;;;;;;1.98;1.58;;;;;;;;;;5041010;28;20503;-83
2022/09/10 04:30:04;;;;;;;1.80;1.65;;;;;;;;;;5040524;28;20102;-83
2022/09/10 04:32:29;;;;;;;3.15;2.08;;;;;;;;;;5040655;28;20028;-83
2022/09/10 04:34:55;;;;;;;2.72;1.60;;;;;;;;;;5075497;28;20036;-83
2022/09/10 04:37:20;;;;;;;3.97;2.08;;;;;;;;;;5074145;28;20068;-83
2022/09/10 04:39:46;;;;;;;2.17;1.80;;;;;;;;;;5075609;28;20029;-83
2022/09/10 04:42:13;;;;;;;4.60;2.00;;;;;;;;;;5057513;28;20039;-83
2022/09/10 04:44:39;;;;;;;2.58;1.75;;;;;;;;;;5057859;28;20028;-83
2022/09/10 04:47:05;;;;;;;3.72;1.95;;;;;;;;;;5057365;28;20111;-82
2022/09/10 04:49:30;;;;;;;2.30;1.65;;;;;;;;;;5057331;28;20032;-82
2022/09/10 04:51:56;;;;;;;3.42;1.85;;;;;;;;;;5040605;28;20028;-82
2022/09/10 04:54:21;;;;;;;2.17;1.90;;;;;;;;;;5057509;28;20094;-82
2022/09/10 04:56:46;;;;;;;2.10;1.85;;;;;;;;;;5059483;28;20119;-83
2022/09/10 04:59:12;;;;;;;2.30;1.83;;;;;;;;;;5061377;28;20048;-81
2022/09/10 05:01:37;;;;;;;2.00;1.67;;;;;;;;;;5061343;28;20073;-83
2022/09/10 05:04:03;;;;;;;2.80;2.20;;;;;;;;;;5078864;28;20036;-83
2022/09/10 05:06:28;;;;;;;2.17;1.90;;;;;;;;;;5060462;28;20025;-83
2022/09/10 05:08:54;;;;;;;2.47;1.98;;;;;;;;;;5060030;28;20029;-83
2022/09/10 05:11:20;;;;;;;2.85;1.95;;;;;;;;;;5077908;28;20366;-82
2022/09/10 05:13:46;;;;;;;2.80;2.10;;;;;;;;;;5060075;28;20055;-82
2022/09/10 05:16:11;;;;;;;2.00;1.80;;;;;;;;;;5076896;28;20020;-82
2022/09/10 05:18:37;;;;;;;2.17;1.80;;;;;;;;;;5059653;28;20032;-81
2022/09/10 05:21:04;;;;;;;3.42;1.63;;;;;;;;;;5076221;28;20029;-81
2022/09/10 05:23:30;;;;;;;3.05;1.90;;;;;;;;;;5058786;28;20053;-82
2022/09/10 05:25:55;;;;;;;3.85;1.80;;;;;;;;;;5059288;28;20021;-83
2022/09/10 05:28:21;;;;;;;2.47;1.73;;;;;;;;;;5059449;28;20043;-83
2022/09/10 05:30:47;;;;;;;2.83;1.63;;;;;;;;;;5077158;28;20060;-82
2022/09/10 05:33:12;;;;;;;1.85;1.67;;;;;;;;;;5059723;28;20108;-82
2022/09/10 05:35:38;;;;;;;2.65;1.60;;;;;;;;;;5044059;28;20112;-81
2022/09/10 05:38:03;;;;;;;3.20;1.90;;;;;;;;;;5060170;28;20391;-81
2022/09/10 05:40:28;;;;;;;2.08;1.75;;;;;;;;;;5077128;28;20040;-81
2022/09/10 05:42:54;;;;;;;2.30;1.50;;;;;;;;;;5041572;28;20032;-82
2022/09/10 05:45:20;;;;;;;1.77;1.67;;;;;;;;;;5058401;28;20108;-82
2022/09/10 05:47:46;;;;;;;4.55;1.75;;;;;;;;;;5058730;28;20036;-86
2022/09/10 05:50:13;;;;;;;3.30;2.00;;;;;;;;;;5077105;28;20036;-83
2022/09/10 05:52:38;;;;;;;2.83;1.70;;;;;;;;;;5076988;28;20104;-83
2022/09/10 05:55:04;;;;;;;10.35;3.38;;;;;;;;;;5075327;28;20048;-80
2022/09/10 05:57:30;;;;;;;14.65;3.13;;;;;;;;;;5076381;28;20028;-82
2022/09/10 05:59:55;;;;;;;7.93;2.70;;;;;;;;;;5059846;28;20408;-81
2022/09/10 06:02:21;;;;;;;8.02;2.80;;;;;;;;;;5043647;28;20021;-80
2022/09/10 06:04:46;;;;;;;10.20;2.40;;;;;;;;;;5058754;28;20025;-81
2022/09/10 06:07:11;;;;;;;2.55;1.85;;;;;;;;;;5075460;28;20039;-81
2022/09/10 06:09:37;;;;;;;8.00;2.63;;;;;;;;;;5057691;28;20036;-79
2022/09/10 06:12:04;;;;;;;5.00;2.03;;;;;;;;;;5070492;28;20036;-81
2022/09/10 06:14:30;;;;;;;2.75;2.05;;;;;;;;;;5067945;28;20020;-82
2022/09/10 06:16:55;;;;;;;3.35;2.25;;;;;;;;;;5060568;28;20036;-80
2022/09/10 06:19:21;;;;;;;6.65;2.53;;;;;;;;;;5077714;28;20085;-80
2022/09/10 06:21:48;;;;;;;5.43;2.30;;;;;;;;;;5043505;28;20024;-80
2022/09/10 06:24:14;;;;;;;6.40;2.00;;;;;;;;;;5058120;28;20044;-79
2022/09/10 06:26:40;;;;;;;4.40;2.03;;;;;;;;;;5059315;28;20452;-80
2022/09/10 06:29:06;;;;;;;3.80;2.30;;;;;;;;;;5043226;28;20136;-80
2022/09/10 06:31:33;;;;;;;3.80;2.10;;;;;;;;;;5042411;28;20029;-81
2022/09/10 06:34:05;;;;;;;4.78;2.50;;;;;;;;;;5043031;28;20399;-79
2022/09/10 06:36:32;;;;;;;4.80;2.00;;;;;;;;;;5058156;28;20108;-80
2022/09/10 06:38:58;;;;;;;6.70;2.45;;;;;;;;;;5075674;28;20032;-81
2022/09/10 06:41:24;;;;;;;3.47;2.13;;;;;;;;;;5042787;28;20040;-81
2022/09/10 06:43:49;;;;;;;3.58;2.13;;;;;;;;;;5057130;28;20040;-81
2022/09/10 06:46:18;;;;;;;5.70;2.00;;;;;;;;;;5057758;28;20025;-81
2022/09/10 06:48:44;;;;;;;2.30;1.63;;;;;;;;;;5057469;28;20037;-83
2022/09/10 06:51:11;;;;;;;9.95;1.80;;;;;;;;;;5041551;28;20032;-82
2022/09/10 06:53:38;;;;;;;2.20;1.92;;;;;;;;;;5040881;28;20032;-82
2022/09/10 06:56:05;;;;;;;5.63;2.03;;;;;;;;;;5058760;28;20431;-80
2022/09/10 06:58:32;;;;;;;2.35;1.77;;;;;;;;;;5057805;28;20464;-83
2022/09/10 07:00:58;;;;;;;5.18;1.90;;;;;;;;;;5058122;28;20032;-80
2022/09/10 07:03:23;;;;;;;5.60;1.80;;;;;;;;;;5040824;28;20044;-80
2022/09/10 07:05:52;;;;;;;5.82;2.22;;;;;;;;;;5057336;28;20039;-80
2022/09/10 07:08:19;;;;;;;3.17;1.80;;;;;;;;;;5075058;28;20037;-80
2022/09/10 07:10:45;;;;;;;2.97;1.73;;;;;;;;;;5075120;28;20028;-80
2022/09/10 07:13:14;;;;;;;3.53;2.10;;;;;;;;;;5056693;28;20040;-81
2022/09/10 07:15:46;;;;;;;3.67;1.70;;;;;;;;;;5042219;28;20021;-78
2022/09/10 07:18:13;;;;;;;5.05;1.60;;;;;;;;;;5076901;28;20476;-78
2022/09/10 07:20:40;;;;;;;3.45;1.60;;;;;;;;;;5058064;28;20068;-81
2022/09/10 07:23:05;;;;;;;2.45;1.70;;;;;;;;;;5057073;28;20398;-79
2022/09/10 07:25:32;;;;;;;3.58;1.40;;;;;;;;;;5056289;28;20044;-79
2022/09/10 07:27:58;;;;;;;2.80;1.60;;;;;;;;;;5056328;28;20036;-79
2022/09/10 07:30:23;;;;;;;4.03;1.77;;;;;;;;;;5073864;28;20051;-79
2022/09/10 07:32:49;;;;;;;3.42;1.63;;;;;;;;;;5056713;28;20052;-79
2022/09/10 07:35:15;;;;;;;3.30;1.48;;;;;;;;;;5078058;28;20353;-80
2022/09/10 07:37:40;;;;;;;2.00;1.30;;;;;;;;;;5063247;28;20039;-81
2022/09/10 07:40:07;;;;;;;3.65;1.48;;;;;;;;;;5059271;28;20033;-81
2022/09/10 07:42:34;;;;;;;4.68;1.60;;;;;;;;;;5059065;28;20159;-80
2022/09/10 07:45:00;;;;;;;2.40;1.45;;;;;;;;;;5076600;28;20103;-81
2022/09/10 07:47:26;;;;;;;2.70;1.58;;;;;;;;;;5076910;28;20108;-79
2022/09/10 07:49:51;;;;;;;1.60;1.50;;;;;;;;;;5058697;28;20040;-80
2022/09/10 07:52:17;;;;;;;2.47;1.90;;;;;;;;;;5059086;28;20032;-79
2022/09/10 07:54:43;;;;;;;6.20;2.40;;;;;;;;;;5041531;28;20031;-79
2022/09/10 07:57:08;;;;;;;2.35;1.40;;;;;;;;;;5041675;28;20082;-80
2022/09/10 07:59:33;;;;;;;1.90;1.50;;;;;;;;;;5058580;28;20051;-80
2022/09/10 08:01:59;;;;;;;5.55;1.48;;;;;;;;;;5058311;28;20039;-80
2022/09/10 08:04:24;;;;;;;1.48;1.30;;;;;;;;;;5076104;28;20024;-80
2022/09/10 08:06:50;;;;;;;3.55;1.60;;;;;;;;;;5041543;28;20029;-80
2022/09/10 08:09:18;;;;;;;5.75;1.77;;;;;;;;;;5041626;28;20032;-80
2022/09/10 08:11:44;;;;;;;1.73;1.40;;;;;;;;;;5076680;28;20028;-79
2022/09/10 08:14:09;;;;;;;1.52;1.30;;;;;;;;;;5058722;28;20098;-79
2022/09/10 08:16:35;;;;;;;3.00;1.60;;;;;;;;;;5058614;28;20028;-80
2022/09/10 08:19:01;;;;;;;2.10;1.20;;;;;;;;;;5062353;28;20041;-80
2022/09/10 08:21:30;;;;;;;7.93;1.60;;;;;;;;;;5079753;28;20033;-81
2022/09/10 08:23:57;;;;;;;1.67;1.40;;;;;;;;;;5045208;28;20511;-80
2022/09/10 08:26:24;;;;;;;4.13;1.50;;;;;;;;;;5078161;28;20033;-80
2022/09/10 08:28:54;;;;;;;2.08;1.52;;;;;;;;;;5059660;28;20035;-80
2022/09/10 08:31:20;;;;;;;6.50;1.50;;;;;;;;;;5058692;28;20043;-80
2022/09/10 08:33:51;;;;;;;2.20;1.30;;;;;;;;;;5075999;28;20024;-80
2022/09/10 08:36:17;;;;;;;1.35;1.25;;;;;;;;;;5057931;28;20511;-80
2022/09/10 08:38:43;;;;;;;1.45;1.10;;;;;;;;;;5059822;28;20365;-80
2022/09/10 08:41:12;;;;;;;1.63;1.33;;;;;;;;;;5057973;28;20030;-80
2022/09/10 08:43:47;;;;;;;1.40;1.27;;;;;;;;;;5057748;28;20032;-81
2022/09/10 08:46:19;;;;;;;2.88;1.20;;;;;;;;;;5057547;28;20431;-81
2022/09/10 08:48:47;;;;;;;1.50;1.40;;;;;;;;;;5075641;28;20040;-81
2022/09/10 08:51:26;;;;;;;3.38;1.40;;;;;;;;;;5057893;28;20032;-81
2022/09/10 08:54:04;;;;;;;1.33;1.10;;;;;;;;;;5076207;28;20427;-80
2022/09/10 08:56:31;;;;;;;1.65;1.13;;;;;;;;;;5057269;28;20020;-80
2022/09/10 08:59:04;;;;;;;1.52;1.25;;;;;;;;;;5074904;28;20453;-80
2022/09/10 09:01:35;;;;;;;4.45;1.38;;;;;;;;;;5057773;28;20036;-80
2022/09/10 09:04:04;;;;;;;1.35;1.25;;;;;;;;;;5063808;28;20048;-80
2022/09/10 09:06:38;;;;;;;2.80;1.23;;;;;;;;;;5075645;28;20036;-80
2022/09/10 09:09:04;;;;;;;1.33;1.23;;;;;;;;;;5058687;28;20024;-81
2022/09/10 09:12:14;;;;;;;2.53;1.23;;;;;;;;;;5059576;28;20033;-82
2022/09/10 09:14:44;;;;;;;2.13;1.30;;;;;;;;;;4976824;28;20110;-82
2022/09/10 09:17:37;;;;;;;1.30;1.10;;;;;;;;;;4976170;28;20510;-80
2022/09/10 09:20:12;;;;;;;1.42;1.33;;;;;;;;;;5048141;28;20033;-81
2022/09/10 09:22:50;;;;;;;1.35;1.13;;;;;;;;;;5076551;28;20033;-78
2022/09/10 09:25:43;;;;;;;2.58;1.50;;;;;;;;;;5058708;28;20021;-81
2022/09/10 09:28:37;;;;;;;5.30;1.70;;;;;;;;;;5058287;28;20028;-81
2022/09/10 09:31:13;;;;;;;1.70;1.58;;;;;;;;;;5065788;28;20043;-82
2022/09/10 09:33:38;;;;;;;7.68;1.80;;;;;;;;;;5041267;28;20074;-81
2022/09/10 09:36:05;;;;;;;3.40;1.90;;;;;;;;;;5041612;28;20029;-81
2022/09/10 09:38:39;;;;;;;4.38;1.80;;;;;;;;;;5076455;28;20024;-81
2022/09/10 09:41:27;;;;;;;2.92;1.60;;;;;;;;;;5075087;28;20115;-80
2022/09/10 09:44:03;;;;;;;1.98;1.77;;;;;;;;;;5058626;28;20021;-80
2022/09/10 09:46:28;;;;;;;1.77;1.60;;;;;;;;;;5059080;28;20032;-80
2022/09/10 09:48:58;;;;;;;2.28;1.48;;;;;;;;;;5076673;28;20041;-79
2022/09/10 09:51:26;;;;;;;1.88;1.48;;;;;;;;;;5077090;28;20039;-80
2022/09/10 09:53:58;;;;;;;1.30;1.20;;;;;;;;;;5059036;28;20391;-80
2022/09/10 09:56:26;;;;;;;1.77;1.38;;;;;;;;;;5042277;28;20112;-80
2022/09/10 09:58:52;;;;;;;2.15;1.33;;;;;;;;;;5040270;28;20416;-81
2022/09/10 10:01:22;;;;;;;2.63;1.60;;;;;;;;;;5057986;28;20036;-79
2022/09/10 10:04:01;;;;;;;2.97;1.33;;;;;;;;;;5058628;28;20020;-82
2022/09/10 10:06:32;;;;;;;3.72;1.48;;;;;;;;;;5076397;28;20028;-82
2022/09/10 10:08:58;;;;;;;1.63;1.52;;;;;;;;;;5041876;28;20020;-82
2022/09/10 10:11:44;;;;;;;2.40;1.77;;;;;;;;;;5076886;28;20500;-82
2022/09/10 10:14:29;;;;;;;1.92;1.63;;;;;;;;;;5058920;28;20025;-82
2022/09/10 10:16:55;;;;;;;1.77;1.50;;;;;;;;;;5076723;28;20037;-81
2022/09/10 10:19:33;;;;;;;1.88;1.55;;;;;;;;;;5060095;28;20055;-81
2022/09/10 10:22:17;;;;;;;2.10;1.75;;;;;;;;;;5076785;28;20027;-82
2022/09/10 10:24:43;;;;;;;1.92;1.50;;;;;;;;;;5080400;28;20593;-81
2022/09/10 10:27:16;;;;;;;2.35;1.50;;;;;;;;;;5069729;28;20067;-81
2022/09/10 10:29:50;;;;;;;3.00;1.75;;;;;;;;;;5063900;28;20469;-82
2022/09/10 10:32:17;;;;;;;1.50;1.40;;;;;;;;;;5059300;28;20025;-81
2022/09/10 10:34:52;;;;;;;1.83;1.50;;;;;;;;;;5042803;28;20024;-81
2022/09/10 10:37:32;;;;;;;1.85;1.45;;;;;;;;;;5077032;28;20035;-81
2022/09/10 10:40:14;;;;;;;2.75;1.80;;;;;;;;;;5060352;28;20050;-83
2022/09/10 10:42:47;;;;;;;2.22;1.77;;;;;;;;;;5076132;28;20062;-82
2022/09/10 10:45:31;;;;;;;4.03;1.85;;;;;;;;;;5058333;28;20077;-80
2022/09/10 10:48:22;;;;;;;3.10;2.60;;;;;;;;;;5076522;28;20029;-80
2022/09/10 10:50:54;;;;;;;3.80;2.38;;;;;;;;;;5074326;28;20040;-81
2022/09/10 10:53:29;;;;;;;3.38;2.20;;;;;;;;;;5057820;28;20111;-82
2022/09/10 10:56:07;;;;;;;4.15;2.50;;;;;;;;;;5058638;28;20024;-80
2022/09/10 10:59:15;;;;;;;2.60;2.20;;;;;;;;;;5058849;28;20028;-80
2022/09/10 11:01:47;;;;;;;4.75;2.50;;;;;;;;;;5076084;28;20107;-80
2022/09/10 11:04:12;;;;;;;4.07;2.58;;;;;;;;;;5041336;28;20024;-81
2022/09/10 11:06:44;;;;;;;4.60;2.92;;;;;;;;;;5057313;28;20031;-83
2022/09/10 11:09:22;;;;;;;3.72;2.63;;;;;;;;;;5078200;28;20404;-82
2022/09/10 11:11:56;;;;;;;6.45;3.60;;;;;;;;;;5061031;28;20043;-83
2022/09/10 11:14:57;;;;;;;7.60;4.40;;;;;;;;;;5078710;28;20066;-81
2022/09/10 11:17:38;;;;;;;8.55;5.00;;;;;;;;;;5056417;28;20047;-79
2022/09/10 11:20:22;;;;;;;12.80;5.72;;;;;;;;;;5063902;28;20025;-79
2022/09/10 11:22:51;;;;;;;18.60;6.70;;;;;;;;;;5060090;28;20052;-79
2022/09/10 11:25:27;;;;;;;10.70;6.05;;;;;;;;;;5059916;28;20025;-76
2022/09/10 11:28:12;;;;;;;9.35;4.70;;;;;;;;;;5077968;28;20027;-79
2022/09/10 11:30:39;;;;;;;13.35;4.68;;;;;;;;;;5078728;28;20029;-79
2022/09/10 11:33:16;;;;;;;9.23;4.28;;;;;;;;;;5060389;28;20025;-78
2022/09/10 11:35:47;;;;;;;10.40;4.35;;;;;;;;;;5077567;28;20017;-78
2022/09/10 11:38:42;;;;;;;9.27;4.18;;;;;;;;;;5059575;28;20475;-77
2022/09/10 11:41:23;;;;;;;4.93;2.90;;;;;;;;;;5059651;28;20039;-77
2022/09/10 11:44:11;;;;;;;4.05;2.60;;;;;;;;;;5059183;28;20025;-77
2022/09/10 11:46:41;;;;;;;3.53;2.30;;;;;;;;;;5076433;28;20089;-77
2022/09/10 11:49:11;;;;;;;4.35;2.38;;;;;;;;;;5059189;28;20105;-77
2022/09/10 11:51:37;;;;;;;4.95;2.35;;;;;;;;;;5060148;28;20498;-78
2022/09/10 11:54:08;;;;;;;5.18;1.65;;;;;;;;;;5060865;28;20498;-78
2022/09/10 11:57:00;;;;;;;2.08;1.70;;;;;;;;;;5061007;28;20384;-79
2022/09/10 11:59:51;;;;;;;2.15;1.60;;;;;;;;;;5059253;28;20020;-78
2022/09/10 12:02:38;;;;;;;2.63;1.40;;;;;;;;;;5077895;28;20036;-78
2022/09/10 12:05:15;;;;;;;2.45;1.30;;;;;;;;;;5076943;28;20021;-78
2022/09/10 12:07:53;;;;;;;2.17;1.45;;;;;;;;;;5076585;28;20067;-77
2022/09/10 12:10:32;;;;;;;6.55;1.08;;;;;;;;;;5057736;28;20034;-77
2022/09/10 12:12:58;;;;;;;1.38;1.10;;;;;;;;;;5057952;28;20028;-77
2022/09/10 12:15:26;;;;;;;3.78;1.15;;;;;;;;;;5076170;28;20545;-77
2022/09/10 12:17:58;;;;;;;1.20;1.10;;;;;;;;;;5076125;28;20032;-77
2022/09/10 12:20:30;;;;;;;1.80;1.00;;;;;;;;;;5057148;28;20074;-78
2022/09/10 12:22:56;;;;;;;1.92;0.98;;;;;;;;;;5034508;28;20037;-77
2022/09/10 12:25:30;;;;;;;2.03;1.05;;;;;;;;;;5054670;28;20033;-77
2022/09/10 12:27:58;;;;;;;2.45;1.00;;;;;;;;;;5038467;28;20024;-76
2022/09/10 12:30:23;;;;;;;1.33;0.90;;;;;;;;;;5038185;28;20059;-77
2022/09/10 12:32:51;;;;;;;1.92;1.00;;;;;;;;;;5055764;28;20072;-77
2022/09/10 12:35:41;;;;;;;2.30;0.93;;;;;;;;;;5056211;28;20029;-77
2022/09/10 12:38:41;;;;;;;1.73;0.70;;;;;;;;;;5054323;28;20024;-77
2022/09/10 12:41:29;;;;;;;1.50;1.00;;;;;;;;;;5038020;28;20075;-77
2022/09/10 12:44:03;;;;;;;3.13;1.05;;;;;;;;;;5055117;28;20029;-77
2022/09/10 12:46:30;;;;;;;0.90;0.90;;;;;;;;;;5037835;28;20033;-77
2022/09/10 12:48:56;;;;;;;1.08;1.00;;;;;;;;;;5055590;28;20479;-77
2022/09/10 12:51:39;;;;;;;1.25;1.00;;;;;;;;;;5037429;28;20021;-77
2022/09/10 12:54:04;;;;;;;1.95;1.00;;;;;;;;;;5037418;28;20083;-77
2022/09/10 12:56:51;;;;;;;1.35;0.90;;;;;;;;;;5055350;28;20385;-76
2022/09/10 12:59:39;;;;;;;2.80;1.08;;;;;;;;;;5037790;28;20435;-77
2022/09/10 13:02:19;;;;;;;4.00;1.17;;;;;;;;;;5037832;28;20029;-77
2022/09/10 13:04:52;;;;;;;2.28;0.98;;;;;;;;;;5037292;28;20025;-78
2022/09/10 13:07:22;;;;;;;;;;;;;;;;;;5055731;28;20032;-77
2022/09/10 13:10:00;;;;;;;3.05;1.02;;;;;;;;;;5037207;28;19913;-77
2022/09/10 13:12:26;;;;;;;1.58;1.02;;;;;;;;;;5037138;28;20457;-77
2022/09/10 13:14:53;;;;;;;1.30;1.10;;;;;;;;;;5020835;28;20036;-77
2022/09/10 13:17:36;;;;;;;1.55;1.10;;;;;;;;;;5055861;28;20128;-76
2022/09/10 13:20:31;;;;;;;2.20;1.30;;;;;;;;;;5056374;28;20032;-76
2022/09/10 13:23:18;;;;;;;6.10;1.40;;;;;;;;;;5041855;28;20072;-77
2022/09/10 13:25:48;;;;;;;2.30;1.30;;;;;;;;;;5057461;28;20024;-77
2022/09/10 13:28:29;;;;;;;1.73;1.30;;;;;;;;;;5057896;28;20124;-77
2022/09/10 13:31:07;;;;;;;2.83;1.50;;;;;;;;;;5048853;28;20020;-76
2022/09/10 13:33:59;;;;;;;3.03;1.30;;;;;;;;;;5074587;28;20024;-77
2022/09/10 13:36:50;;;;;;;1.92;1.30;;;;;;;;;;5073722;28;20138;-77
2022/09/10 13:39:46;;;;;;;1.75;1.17;;;;;;;;;;5074896;28;20025;-77
2022/09/10 13:42:30;;;;;;;1.50;1.10;;;;;;;;;;5074139;28;20028;-77
2022/09/10 13:45:25;;;;;;;1.70;1.17;;;;;;;;;;5039613;28;20099;-77
2022/09/10 13:48:09;;;;;;;1.73;1.52;;;;;;;;;;5039263;28;20036;-77
2022/09/10 13:50:46;;;;;;;2.17;1.20;;;;;;;;;;5039544;28;20396;-77
2022/09/10 13:53:14;;;;;;;1.63;1.10;;;;;;;;;;5074168;28;20064;-76
2022/09/10 13:55:49;;;;;;;3.22;1.30;;;;;;;;;;5056609;28;20020;-77
2022/09/10 13:58:17;;;;;;;2.42;1.27;;;;;;;;;;5056141;28;20074;-76
2022/09/10 14:00:52;;;;;;;3.30;1.80;;;;;;;;;;5056294;28;20055;-76
2022/09/10 14:03:23;;;;;;;1.90;1.30;;;;;;;;;;5039297;28;20078;-77
2022/09/10 14:05:52;;;;;;;1.85;1.48;;;;;;;;;;5055992;28;20024;-77
2022/09/10 14:08:22;;;;;;;2.25;1.58;;;;;;;;;;5039274;28;20029;-77
2022/09/10 14:10:55;;;;;;;4.05;1.60;;;;;;;;;;5056040;28;20032;-77
2022/09/10 14:13:30;;;;;;;2.80;1.67;;;;;;;;;;5056149;28;20043;-77
2022/09/10 14:15:58;;;;;;;2.28;1.48;;;;;;;;;;5056345;28;20064;-77
2022/09/10 14:18:30;;;;;;;1.75;1.20;;;;;;;;;;5056020;28;20491;-77
2022/09/10 14:20:57;;;;;;;1.80;1.25;;;;;;;;;;5056175;28;20060;-77
2022/09/10 14:23:22;;;;;;;2.50;1.30;;;;;;;;;;5038710;28;20139;-77
2022/09/10 14:26:07;;;;;;;1.98;1.60;;;;;;;;;;5056105;28;20127;-77
2022/09/10 14:28:34;;;;;;;1.80;1.13;;;;;;;;;;5073384;28;20047;-77
2022/09/10 14:31:24;;;;;;;2.85;1.52;;;;;;;;;;5038777;28;20028;-77
2022/09/10 14:33:50;;;;;;;1.63;1.20;;;;;;;;;;5055385;28;20503;-77
2022/09/10 14:36:41;;;;;;;1.52;1.23;;;;;;;;;;5055691;28;20028;-77
2022/09/10 14:39:18;;;;;;;1.98;1.30;;;;;;;;;;5067601;28;20048;-76
2022/09/10 14:41:44;;;;;;;2.85;1.30;;;;;;;;;;5055622;28;20028;-77
2022/09/10 14:44:22;;;;;;;2.35;1.15;;;;;;;;;;5054883;28;20024;-77
2022/09/10 14:46:50;;;;;;;1.63;1.15;;;;;;;;;;5074929;28;20029;-77
2022/09/10 14:49:16;;;;;;;2.42;1.40;;;;;;;;;;5074790;28;20048;-77
2022/09/10 14:51:42;;;;;;;1.30;1.20;;;;;;;;;;5055877;28;20118;-77
2022/09/10 14:54:10;;;;;;;2.08;1.23;;;;;;;;;;5057219;28;20054;-77
2022/09/10 14:56:38;;;;;;;1.83;1.50;;;;;;;;;;5056663;28;20052;-76
2022/09/10 14:59:28;;;;;;;1.85;1.42;;;;;;;;;;5039308;28;20052;-77
2022/09/10 15:01:55;;;;;;;2.20;1.20;;;;;;;;;;5056519;28;20017;-77
2022/09/10 15:04:22;;;;;;;1.45;1.20;;;;;;;;;;5055856;28;20535;-77
2022/09/10 15:06:53;;;;;;;2.15;1.30;;;;;;;;;;5055558;28;20055;-76